Time,TemperatureF,DewpointF,PressureIn,WindDirection,WindDirectionDegrees,WindSpeedMPH,WindSpeedGustMPH,Humidity,HourlyPrecipIn,Conditions,Clouds,dailyrainin,SoftwareType,DateUTC
2013-02-25 00:01:00,34.0,19.0,29.96,SW,222,8.0,13.0,54,0.00,,,0.00,,2013-02-25 07:01:00,
2013-02-25 00:11:00,34.0,19.0,29.95,SW,231,10.0,15.0,54,0.00,,,0.00,,2013-02-25 07:11:00,
2013-02-25 00:21:00,34.0,19.0,29.95,SW,231,10.0,15.0,54,0.00,,,0.00,,2013-02-25 07:21:00,
2013-02-25 00:31:00,33.0,19.0,29.95,WSW,243,5.0,11.0,56,0.00,,,0.00,,2013-02-25 07:31:00,
2013-02-25 00:41:00,33.0,19.0,29.95,WSW,243,5.0,11.0,56,0.00,,,0.00,,2013-02-25 07:41:00,
2013-02-25 00:52:00,33.0,19.0,29.95,SW,231,10.0,13.0,56,0.00,,,0.00,,2013-02-25 07:52:00,
2013-02-25 01:01:00,33.0,19.0,29.95,SW,232,8.0,13.0,56,0.00,,,0.00,,2013-02-25 08:01:00,
2013-02-25 01:11:00,33.0,19.0,29.95,SW,232,8.0,13.0,56,0.00,,,0.00,,2013-02-25 08:11:00,
2013-02-25 01:21:00,34.0,19.0,29.95,SW,225,14.0,21.0,54,0.00,,,0.00,,2013-02-25 08:21:00,
2013-02-25 01:31:00,35.0,19.0,29.95,SW,233,14.0,24.0,51,0.00,,,0.00,,2013-02-25 08:31:00,
2013-02-25 01:41:00,35.0,19.0,29.95,SW,233,14.0,24.0,51,0.00,,,0.00,,2013-02-25 08:41:00,
2013-02-25 01:52:00,35.0,19.0,29.95,West,259,13.0,20.0,51,0.00,,,0.00,,2013-02-25 08:52:00,
2013-02-25 02:01:00,34.0,18.0,29.94,West,259,15.0,22.0,51,0.00,,,0.00,,2013-02-25 09:01:00,
2013-02-25 02:12:00,34.0,18.0,29.94,West,259,15.0,22.0,51,0.00,,,0.00,,2013-02-25 09:12:00,
2013-02-25 02:21:00,34.0,18.0,29.94,WSW,256,14.0,23.0,51,0.00,,,0.00,,2013-02-25 09:21:00,
2013-02-25 02:31:00,34.0,18.0,29.93,SW,236,15.0,23.0,51,0.00,,,0.00,,2013-02-25 09:31:00,
2013-02-25 02:41:00,34.0,18.0,29.93,SW,236,15.0,23.0,51,0.00,,,0.00,,2013-02-25 09:41:00,
2013-02-25 02:52:00,34.0,18.0,29.93,SW,233,13.0,21.0,51,0.00,,,0.00,,2013-02-25 09:52:00,
2013-02-25 03:01:00,34.0,18.0,29.93,WSW,246,11.0,17.0,51,0.00,,,0.00,,2013-02-25 10:01:00,
2013-02-25 03:11:00,34.0,18.0,29.93,WSW,246,11.0,17.0,51,0.00,,,0.00,,2013-02-25 10:11:00,
2013-02-25 03:21:00,34.0,18.0,29.92,SW,229,11.0,19.0,51,0.00,,,0.00,,2013-02-25 10:21:00,
2013-02-25 03:31:00,34.0,18.0,29.91,SW,228,12.0,18.0,51,0.00,,,0.00,,2013-02-25 10:31:00,
2013-02-25 03:41:00,34.0,18.0,29.91,SW,228,12.0,18.0,51,0.00,,,0.00,,2013-02-25 10:41:00,
2013-02-25 03:52:00,34.0,18.0,29.91,SW,228,12.0,18.0,51,0.00,,,0.00,,2013-02-25 10:52:00,
2013-02-25 04:01:00,34.0,17.0,29.90,SW,236,16.0,22.0,49,0.00,,,0.00,,2013-02-25 11:01:00,
2013-02-25 04:11:00,34.0,17.0,29.90,SW,236,16.0,22.0,49,0.00,,,0.00,,2013-02-25 11:11:00,
2013-02-25 04:21:00,34.0,17.0,29.91,WSW,238,11.0,17.0,50,0.00,,,0.00,,2013-02-25 11:21:00,
2013-02-25 04:32:00,33.0,17.0,29.90,SW,232,9.0,15.0,52,0.00,,,0.00,,2013-02-25 11:32:00,
2013-02-25 04:42:00,33.0,17.0,29.90,SW,232,9.0,15.0,52,0.00,,,0.00,,2013-02-25 11:42:00,
2013-02-25 04:52:00,33.0,17.0,29.89,SW,222,11.0,17.0,52,0.00,,,0.00,,2013-02-25 11:52:00,
2013-02-25 05:01:00,34.0,18.0,29.89,SW,232,12.0,16.0,51,0.00,,,0.00,,2013-02-25 12:01:00,
2013-02-25 05:11:00,34.0,18.0,29.89,SW,232,12.0,16.0,51,0.00,,,0.00,,2013-02-25 12:11:00,
2013-02-25 05:21:00,34.0,17.0,29.88,SW,226,13.0,22.0,49,0.00,,,0.00,,2013-02-25 12:21:00,
2013-02-25 05:31:00,35.0,17.0,29.87,SW,214,15.0,22.0,48,0.00,,,0.00,,2013-02-25 12:31:00,
2013-02-25 05:41:00,35.0,17.0,29.87,SW,214,15.0,22.0,48,0.00,,,0.00,,2013-02-25 12:41:00,
2013-02-25 05:54:00,35.0,17.0,29.87,SW,224,13.0,20.0,48,0.00,,,0.00,,2013-02-25 12:54:00,
2013-02-25 06:01:00,35.0,17.0,29.85,WSW,246,14.0,22.0,48,0.00,,,0.00,,2013-02-25 13:01:00,
2013-02-25 06:11:00,35.0,17.0,29.85,WSW,246,14.0,22.0,48,0.00,,,0.00,,2013-02-25 13:11:00,
2013-02-25 06:21:00,35.0,17.0,29.85,WSW,246,14.0,22.0,48,0.00,,,0.00,,2013-02-25 13:21:00,
2013-02-25 06:31:00,35.0,18.0,29.85,SW,224,11.0,20.0,49,0.00,,,0.00,,2013-02-25 13:31:00,
2013-02-25 06:41:00,35.0,18.0,29.85,SW,224,11.0,20.0,49,0.00,,,0.00,,2013-02-25 13:41:00,
2013-02-25 06:52:00,35.0,18.0,29.85,SW,236,10.0,17.0,49,0.00,,,0.00,,2013-02-25 13:52:00,
2013-02-25 07:02:00,35.0,18.0,29.84,SW,219,11.0,15.0,50,0.00,,,0.00,,2013-02-25 14:02:00,
2013-02-25 07:13:00,35.0,18.0,29.84,SW,219,11.0,15.0,50,0.00,,,0.00,,2013-02-25 14:13:00,
2013-02-25 07:21:00,35.0,18.0,29.83,SW,236,12.0,17.0,50,0.00,,,0.00,,2013-02-25 14:21:00,
2013-02-25 07:31:00,36.0,19.0,29.83,SW,224,13.0,19.0,49,0.00,,,0.00,,2013-02-25 14:31:00,
2013-02-25 07:41:00,36.0,19.0,29.83,SW,224,13.0,19.0,49,0.00,,,0.00,,2013-02-25 14:41:00,
2013-02-25 07:52:00,36.0,19.0,29.83,WSW,240,12.0,19.0,49,0.00,,,0.00,,2013-02-25 14:52:00,
2013-02-25 08:02:00,36.0,18.0,29.82,SW,229,13.0,22.0,48,0.00,,,0.00,,2013-02-25 15:02:00,
2013-02-25 08:11:00,36.0,18.0,29.82,SW,229,13.0,22.0,48,0.00,,,0.00,,2013-02-25 15:11:00,
2013-02-25 08:21:00,37.0,18.0,29.82,SW,233,14.0,25.0,46,0.00,,,0.00,,2013-02-25 15:21:00,
2013-02-25 08:32:00,37.0,18.0,29.81,WSW,250,11.0,17.0,46,0.00,,,0.00,,2013-02-25 15:32:00,
2013-02-25 08:41:00,37.0,18.0,29.81,WSW,250,11.0,17.0,46,0.00,,,0.00,,2013-02-25 15:41:00,
2013-02-25 08:52:00,38.0,19.0,29.81,WSW,245,12.0,20.0,45,0.00,,,0.00,,2013-02-25 15:52:00,
2013-02-25 09:01:00,37.0,18.0,29.81,SW,236,13.0,22.0,45,0.00,,,0.00,,2013-02-25 16:01:00,
2013-02-25 09:11:00,37.0,18.0,29.81,SW,236,13.0,22.0,45,0.00,,,0.00,,2013-02-25 16:11:00,
2013-02-25 09:21:00,37.0,18.0,29.81,SW,232,11.0,17.0,45,0.00,,,0.00,,2013-02-25 16:21:00,
2013-02-25 09:31:00,38.0,19.0,29.80,SW,231,11.0,16.0,45,0.00,,,0.00,,2013-02-25 16:31:00,
2013-02-25 09:41:00,38.0,19.0,29.80,SW,231,11.0,16.0,45,0.00,,,0.00,,2013-02-25 16:41:00,
2013-02-25 09:52:00,38.0,19.0,29.79,SW,226,14.0,19.0,45,0.00,,,0.00,,2013-02-25 16:52:00,
2013-02-25 10:01:00,38.0,19.0,29.79,SW,233,13.0,22.0,45,0.00,,,0.00,,2013-02-25 17:01:00,
2013-02-25 10:11:00,38.0,19.0,29.79,SW,233,13.0,22.0,45,0.00,,,0.00,,2013-02-25 17:11:00,
2013-02-25 10:21:00,39.0,19.0,29.78,WSW,241,14.0,23.0,44,0.00,,,0.00,,2013-02-25 17:21:00,
2013-02-25 10:31:00,40.0,19.0,29.77,SW,224,20.0,27.0,43,0.00,,,0.00,,2013-02-25 17:31:00,
2013-02-25 10:41:00,40.0,19.0,29.77,SW,224,20.0,27.0,43,0.00,,,0.00,,2013-02-25 17:41:00,
2013-02-25 10:52:00,41.0,19.0,29.76,West,264,21.0,35.0,41,0.00,,,0.00,,2013-02-25 17:52:00,
2013-02-25 11:01:00,42.0,19.0,29.76,SW,228,17.0,30.0,40,0.00,,,0.00,,2013-02-25 18:01:00,
2013-02-25 11:12:00,42.0,19.0,29.76,SW,228,17.0,30.0,40,0.00,,,0.00,,2013-02-25 18:12:00,
2013-02-25 11:21:00,42.0,19.0,29.76,WSW,256,16.0,28.0,40,0.00,,,0.00,,2013-02-25 18:21:00,
2013-02-25 11:32:00,41.0,19.0,29.75,West,264,17.0,30.0,40,0.00,,,0.00,,2013-02-25 18:32:00,
2013-02-25 11:41:00,41.0,19.0,29.75,West,264,17.0,30.0,40,0.00,,,0.00,,2013-02-25 18:41:00,
2013-02-25 11:52:00,41.0,19.0,29.74,SW,234,20.0,30.0,40,0.00,,,0.00,,2013-02-25 18:52:00,
2013-02-25 12:01:00,41.0,19.0,29.74,SW,226,16.0,28.0,40,0.00,,,0.00,,2013-02-25 19:01:00,
2013-02-25 12:11:00,41.0,19.0,29.74,SW,226,16.0,28.0,40,0.00,,,0.00,,2013-02-25 19:11:00,
2013-02-25 12:21:00,41.0,19.0,29.74,SW,232,18.0,33.0,40,0.00,,,0.00,,2013-02-25 19:21:00,
2013-02-25 12:31:00,41.0,18.0,29.73,WSW,249,20.0,29.0,39,0.00,,,0.00,,2013-02-25 19:31:00,
2013-02-25 12:41:00,41.0,18.0,29.73,WSW,249,20.0,29.0,39,0.00,,,0.00,,2013-02-25 19:41:00,
2013-02-25 12:52:00,42.0,18.0,29.72,SW,233,19.0,29.0,38,0.00,,,0.00,,2013-02-25 19:52:00,
2013-02-25 13:01:00,42.0,18.0,29.72,WSW,240,21.0,33.0,38,0.00,,,0.00,,2013-02-25 20:01:00,
2013-02-25 13:11:00,42.0,18.0,29.72,WSW,240,21.0,33.0,38,0.00,,,0.00,,2013-02-25 20:11:00,
2013-02-25 13:21:00,42.0,18.0,29.72,WSW,243,21.0,31.0,38,0.00,,,0.00,,2013-02-25 20:21:00,
2013-02-25 13:31:00,42.0,19.0,29.72,SW,226,17.0,29.0,39,0.00,,,0.00,,2013-02-25 20:31:00,
2013-02-25 13:41:00,42.0,19.0,29.72,SW,226,17.0,29.0,39,0.00,,,0.00,,2013-02-25 20:41:00,
2013-02-25 13:52:00,42.0,19.0,29.72,WSW,240,19.0,33.0,40,0.00,,,0.00,,2013-02-25 20:52:00,
2013-02-25 14:01:00,42.0,20.0,29.73,SW,233,18.0,29.0,41,0.00,,,0.00,,2013-02-25 21:01:00,
2013-02-25 14:11:00,42.0,20.0,29.73,SW,233,18.0,29.0,41,0.00,,,0.00,,2013-02-25 21:11:00,
2013-02-25 14:21:00,41.0,20.0,29.73,WSW,248,17.0,27.0,42,0.00,,,0.00,,2013-02-25 21:21:00,
2013-02-25 14:31:00,41.0,20.0,29.73,WSW,239,14.0,26.0,43,0.00,,,0.00,,2013-02-25 21:31:00,
2013-02-25 14:41:00,41.0,20.0,29.73,WSW,239,14.0,26.0,43,0.00,,,0.00,,2013-02-25 21:41:00,
2013-02-25 14:52:00,41.0,20.0,29.73,WSW,248,15.0,24.0,43,0.00,,,0.00,,2013-02-25 21:52:00,
2013-02-25 15:01:00,41.0,21.0,29.73,WSW,243,16.0,21.0,44,0.00,,,0.00,,2013-02-25 22:01:00,
2013-02-25 15:11:00,41.0,21.0,29.73,WSW,243,16.0,21.0,44,0.00,,,0.00,,2013-02-25 22:11:00,
2013-02-25 15:21:00,41.0,22.0,29.73,SW,231,12.0,19.0,46,0.00,,,0.00,,2013-02-25 22:21:00,
2013-02-25 15:31:00,41.0,21.0,29.73,WSW,246,14.0,23.0,44,0.00,,,0.00,,2013-02-25 22:31:00,
2013-02-25 15:41:00,41.0,21.0,29.73,WSW,246,14.0,23.0,44,0.00,,,0.00,,2013-02-25 22:41:00,
2013-02-25 15:52:00,42.0,21.0,29.73,WSW,252,13.0,23.0,43,0.00,,,0.00,,2013-02-25 22:52:00,
2013-02-25 16:01:00,42.0,21.0,29.74,SW,236,13.0,22.0,42,0.00,,,0.00,,2013-02-25 23:01:00,
2013-02-25 16:11:00,42.0,21.0,29.74,SW,236,13.0,22.0,42,0.00,,,0.00,,2013-02-25 23:11:00,
2013-02-25 16:22:00,41.0,20.0,29.74,West,259,13.0,21.0,43,0.00,,,0.00,,2013-02-25 23:22:00,
2013-02-25 16:31:00,41.0,20.0,29.74,WSW,243,14.0,20.0,42,0.00,,,0.00,,2013-02-25 23:31:00,
2013-02-25 16:41:00,41.0,20.0,29.74,WSW,243,14.0,20.0,42,0.00,,,0.00,,2013-02-25 23:41:00,
2013-02-25 16:52:00,41.0,20.0,29.75,WSW,252,15.0,23.0,42,0.00,,,0.00,,2013-02-25 23:52:00,
2013-02-25 17:01:00,41.0,20.0,29.75,WSW,240,11.0,19.0,43,0.00,,,0.00,,2013-02-26 00:01:00,
2013-02-25 17:11:00,41.0,20.0,29.75,WSW,240,11.0,19.0,43,0.00,,,0.00,,2013-02-26 00:11:00,
2013-02-25 17:21:00,41.0,21.0,29.75,WSW,243,13.0,18.0,44,0.00,,,0.00,,2013-02-26 00:21:00,
2013-02-25 17:32:00,40.0,21.0,29.76,SW,231,8.0,14.0,46,0.00,,,0.00,,2013-02-26 00:32:00,
2013-02-25 17:41:00,40.0,21.0,29.76,SW,231,8.0,14.0,46,0.00,,,0.00,,2013-02-26 00:41:00,
2013-02-25 17:52:00,40.0,21.0,29.76,WSW,240,11.0,15.0,47,0.00,,,0.00,,2013-02-26 00:52:00,
2013-02-25 18:01:00,39.0,21.0,29.76,WSW,249,9.0,13.0,48,0.00,,,0.00,,2013-02-26 01:01:00,
2013-02-25 18:11:00,39.0,21.0,29.76,WSW,249,9.0,13.0,48,0.00,,,0.00,,2013-02-26 01:11:00,
2013-02-25 18:21:00,39.0,21.0,29.76,WSW,239,9.0,14.0,49,0.00,,,0.00,,2013-02-26 01:21:00,
2013-02-25 18:31:00,39.0,21.0,29.77,SW,229,9.0,16.0,49,0.00,,,0.00,,2013-02-26 01:31:00,
2013-02-25 18:41:00,39.0,21.0,29.77,SW,229,9.0,16.0,49,0.00,,,0.00,,2013-02-26 01:41:00,
2013-02-25 18:52:00,39.0,21.0,29.78,WSW,249,12.0,16.0,48,0.00,,,0.00,,2013-02-26 01:52:00,
2013-02-25 19:01:00,38.0,20.0,29.78,WSW,240,10.0,14.0,48,0.00,,,0.00,,2013-02-26 02:01:00,
2013-02-25 19:11:00,38.0,20.0,29.78,WSW,240,10.0,14.0,48,0.00,,,0.00,,2013-02-26 02:11:00,
2013-02-25 19:21:00,38.0,21.0,29.79,WSW,252,12.0,17.0,49,0.00,,,0.00,,2013-02-26 02:21:00,
2013-02-25 19:31:00,38.0,21.0,29.80,WSW,238,12.0,17.0,49,0.00,,,0.00,,2013-02-26 02:31:00,
2013-02-25 19:41:00,38.0,21.0,29.80,WSW,238,12.0,17.0,49,0.00,,,0.00,,2013-02-26 02:41:00,
2013-02-25 19:52:00,38.0,21.0,29.80,WSW,243,12.0,19.0,49,0.00,,,0.00,,2013-02-26 02:52:00,
2013-02-25 20:01:00,37.0,20.0,29.80,WSW,243,10.0,15.0,50,0.00,,,0.00,,2013-02-26 03:01:00,
2013-02-25 20:11:00,37.0,20.0,29.80,WSW,243,10.0,15.0,50,0.00,,,0.00,,2013-02-26 03:11:00,
2013-02-25 20:21:00,37.0,20.0,29.81,WSW,239,11.0,15.0,50,0.00,,,0.00,,2013-02-26 03:21:00,
2013-02-25 20:31:00,36.0,20.0,29.81,WSW,245,9.0,15.0,51,0.00,,,0.00,,2013-02-26 03:31:00,
2013-02-25 20:41:00,36.0,20.0,29.81,WSW,245,9.0,15.0,51,0.00,,,0.00,,2013-02-26 03:41:00,
2013-02-25 20:52:00,36.0,20.0,29.81,WSW,249,11.0,18.0,51,0.00,,,0.00,,2013-02-26 03:52:00,
2013-02-25 21:01:00,35.0,20.0,29.82,WSW,256,11.0,15.0,53,0.00,,,0.00,,2013-02-26 04:01:00,
2013-02-25 21:11:00,35.0,20.0,29.82,WSW,256,11.0,15.0,53,0.00,,,0.00,,2013-02-26 04:11:00,
2013-02-25 21:21:00,35.0,20.0,29.82,WSW,256,11.0,15.0,53,0.00,,,0.00,,2013-02-26 04:21:00,
2013-02-25 21:31:00,34.0,20.0,29.82,West,264,11.0,16.0,55,0.00,,,0.00,,2013-02-26 04:31:00,
2013-02-25 21:42:00,34.0,20.0,29.82,West,264,11.0,16.0,55,0.00,,,0.00,,2013-02-26 04:42:00,
2013-02-25 21:52:00,34.0,20.0,29.82,West,259,9.0,13.0,55,0.00,,,0.00,,2013-02-26 04:52:00,
2013-02-25 22:01:00,34.0,20.0,29.82,WSW,250,9.0,15.0,55,0.00,,,0.00,,2013-02-26 05:01:00,
2013-02-25 22:11:00,34.0,20.0,29.82,WSW,250,9.0,15.0,55,0.00,,,0.00,,2013-02-26 05:11:00,
2013-02-25 22:21:00,34.0,20.0,29.82,WSW,243,10.0,15.0,55,0.00,,,0.00,,2013-02-26 05:21:00,
2013-02-25 22:31:00,33.0,19.0,29.83,West,260,9.0,15.0,56,0.00,,,0.00,,2013-02-26 05:31:00,
2013-02-25 22:42:00,33.0,19.0,29.83,West,260,9.0,15.0,56,0.00,,,0.00,,2013-02-26 05:42:00,
2013-02-25 22:52:00,33.0,19.0,29.83,WSW,255,6.0,13.0,57,0.00,,,0.00,,2013-02-26 05:52:00,
2013-02-25 23:01:00,33.0,19.0,29.84,WSW,253,4.0,10.0,57,0.00,,,0.00,,2013-02-26 06:01:00,
2013-02-25 23:11:00,33.0,19.0,29.84,WSW,253,4.0,10.0,57,0.00,,,0.00,,2013-02-26 06:11:00,
2013-02-25 23:21:00,33.0,19.0,29.84,SW,236,5.0,9.0,57,0.00,,,0.00,,2013-02-26 06:21:00,
2013-02-25 23:31:00,32.0,19.0,29.85,WSW,250,6.0,9.0,57,0.00,,,0.00,,2013-02-26 06:31:00,
2013-02-25 23:41:00,32.0,19.0,29.85,WSW,250,6.0,9.0,57,0.00,,,0.00,,2013-02-26 06:41:00,
2013-02-25 23:52:00,32.0,19.0,29.85,SW,236,5.0,8.0,57,0.00,,,0.00,,2013-02-26 06:52:00,